sensor_id;sensor_type;location;lat;lon;timestamp;temperature;humidity
64937;SHT30;51452;47.698;19.050;2024-01-06T00:00:59;7.71;68.42
64937;SHT30;51452;47.698;19.050;2024-01-06T00:03:28;7.57;68.06
64937;SHT30;51452;47.698;19.050;2024-01-06T00:05:53;7.51;68.70
64937;SHT30;51452;47.698;19.050;2024-01-06T00:08:19;7.43;69.15
64937;SHT30;51452;47.698;19.050;2024-01-06T00:10:47;7.37;69.35
64937;SHT30;51452;47.698;19.050;2024-01-06T00:13:12;7.37;69.42
64937;SHT30;51452;47.698;19.050;2024-01-06T00:15:38;7.43;69.58
64937;SHT30;51452;47.698;19.050;2024-01-06T00:18:03;7.52;69.33
64937;SHT30;51452;47.698;19.050;2024-01-06T00:20:29;7.51;69.52
64937;SHT30;51452;47.698;19.050;2024-01-06T00:23:00;7.43;69.91
64937;SHT30;51452;47.698;19.050;2024-01-06T00:25:26;7.33;70.07
64937;SHT30;51452;47.698;19.050;2024-01-06T00:27:51;7.31;70.10
64937;SHT30;51452;47.698;19.050;2024-01-06T00:30:16;7.27;70.23
64937;SHT30;51452;47.698;19.050;2024-01-06T00:32:42;7.33;69.93
64937;SHT30;51452;47.698;19.050;2024-01-06T00:35:07;7.31;69.98
64937;SHT30;51452;47.698;19.050;2024-01-06T00:37:33;7.27;70.07
64937;SHT30;51452;47.698;19.050;2024-01-06T00:39:59;7.23;70.02
64937;SHT30;51452;47.698;19.050;2024-01-06T00:42:24;7.23;69.78
64937;SHT30;51452;47.698;19.050;2024-01-06T00:44:50;7.20;69.86
64937;SHT30;51452;47.698;19.050;2024-01-06T00:47:21;7.17;69.45
64937;SHT30;51452;47.698;19.050;2024-01-06T00:49:49;7.19;69.25
64937;SHT30;51452;47.698;19.050;2024-01-06T00:52:15;7.10;69.24
64937;SHT30;51452;47.698;19.050;2024-01-06T00:54:40;7.03;68.98
64937;SHT30;51452;47.698;19.050;2024-01-06T00:57:06;6.96;69.43
64937;SHT30;51452;47.698;19.050;2024-01-06T00:59:31;6.95;70.69
64937;SHT30;51452;47.698;19.050;2024-01-06T01:01:56;6.97;71.69
64937;SHT30;51452;47.698;19.050;2024-01-06T01:04:22;6.99;71.61
64937;SHT30;51452;47.698;19.050;2024-01-06T01:06:47;7.02;72.66
64937;SHT30;51452;47.698;19.050;2024-01-06T01:09:13;7.10;72.80
64937;SHT30;51452;47.698;19.050;2024-01-06T01:11:39;7.13;72.26
64937;SHT30;51452;47.698;19.050;2024-01-06T01:14:05;7.17;71.73
64937;SHT30;51452;47.698;19.050;2024-01-06T01:16:30;7.10;70.66
64937;SHT30;51452;47.698;19.050;2024-01-06T01:18:57;7.04;70.20
64937;SHT30;51452;47.698;19.050;2024-01-06T01:21:23;6.95;71.71
64937;SHT30;51452;47.698;19.050;2024-01-06T01:23:48;6.95;72.29
64937;SHT30;51452;47.698;19.050;2024-01-06T01:26:14;6.85;70.84
64937;SHT30;51452;47.698;19.050;2024-01-06T01:28:39;6.88;71.85
64937;SHT30;51452;47.698;19.050;2024-01-06T01:31:04;6.90;71.89
64937;SHT30;51452;47.698;19.050;2024-01-06T01:33:30;6.92;71.49
64937;SHT30;51452;47.698;19.050;2024-01-06T01:35:55;6.95;72.62
64937;SHT30;51452;47.698;19.050;2024-01-06T01:38:20;7.00;72.99
64937;SHT30;51452;47.698;19.050;2024-01-06T01:40:49;7.12;72.80
64937;SHT30;51452;47.698;19.050;2024-01-06T01:43:21;7.20;72.38
64937;SHT30;51452;47.698;19.050;2024-01-06T01:45:52;7.31;72.62
64937;SHT30;51452;47.698;19.050;2024-01-06T01:48:19;7.30;72.96
64937;SHT30;51452;47.698;19.050;2024-01-06T01:50:45;7.30;73.16
64937;SHT30;51452;47.698;19.050;2024-01-06T01:53:12;7.38;73.43
64937;SHT30;51452;47.698;19.050;2024-01-06T01:55:38;7.51;73.23
64937;SHT30;51452;47.698;19.050;2024-01-06T01:58:05;7.51;73.64
64937;SHT30;51452;47.698;19.050;2024-01-06T02:00:31;7.64;73.38
64937;SHT30;51452;47.698;19.050;2024-01-06T02:02:56;7.65;73.40
64937;SHT30;51452;47.698;19.050;2024-01-06T02:05:23;7.65;73.59
64937;SHT30;51452;47.698;19.050;2024-01-06T02:07:49;7.64;74.35
64937;SHT30;51452;47.698;19.050;2024-01-06T02:10:16;7.67;74.40
64937;SHT30;51452;47.698;19.050;2024-01-06T02:12:42;7.68;74.20
64937;SHT30;51452;47.698;19.050;2024-01-06T02:15:10;7.72;74.06
64937;SHT30;51452;47.698;19.050;2024-01-06T02:17:35;7.75;73.92
64937;SHT30;51452;47.698;19.050;2024-01-06T02:20:01;7.79;74.00
64937;SHT30;51452;47.698;19.050;2024-01-06T02:22:26;7.81;73.97
64937;SHT30;51452;47.698;19.050;2024-01-06T02:24:51;7.85;73.56
64937;SHT30;51452;47.698;19.050;2024-01-06T02:27:17;7.91;73.44
64937;SHT30;51452;47.698;19.050;2024-01-06T02:29:42;7.95;73.48
64937;SHT30;51452;47.698;19.050;2024-01-06T02:32:08;8.01;73.29
64937;SHT30;51452;47.698;19.050;2024-01-06T02:34:33;7.98;73.38
64937;SHT30;51452;47.698;19.050;2024-01-06T02:36:59;8.01;73.62
64937;SHT30;51452;47.698;19.050;2024-01-06T02:39:25;8.01;73.72
64937;SHT30;51452;47.698;19.050;2024-01-06T02:41:50;7.98;73.47
64937;SHT30;51452;47.698;19.050;2024-01-06T02:44:15;7.92;73.16
64937;SHT30;51452;47.698;19.050;2024-01-06T02:46:44;7.92;73.03
64937;SHT30;51452;47.698;19.050;2024-01-06T02:49:21;7.96;72.60
64937;SHT30;51452;47.698;19.050;2024-01-06T02:51:47;7.95;72.61
64937;SHT30;51452;47.698;19.050;2024-01-06T02:54:12;7.93;72.43
64937;SHT30;51452;47.698;19.050;2024-01-06T02:56:38;7.91;72.24
64937;SHT30;51452;47.698;19.050;2024-01-06T02:59:04;7.91;72.19
64937;SHT30;51452;47.698;19.050;2024-01-06T03:01:31;7.93;72.54
64937;SHT30;51452;47.698;19.050;2024-01-06T03:04:05;7.96;72.87
64937;SHT30;51452;47.698;19.050;2024-01-06T03:06:30;7.93;72.54
64937;SHT30;51452;47.698;19.050;2024-01-06T03:08:55;7.92;72.61
64937;SHT30;51452;47.698;19.050;2024-01-06T03:11:21;7.91;72.88
64937;SHT30;51452;47.698;19.050;2024-01-06T03:13:46;7.89;73.10
64937;SHT30;51452;47.698;19.050;2024-01-06T03:16:11;7.88;72.95
64937;SHT30;51452;47.698;19.050;2024-01-06T03:18:39;7.91;72.98
64937;SHT30;51452;47.698;19.050;2024-01-06T03:21:05;7.85;72.98
64937;SHT30;51452;47.698;19.050;2024-01-06T03:23:30;7.74;73.54
64937;SHT30;51452;47.698;19.050;2024-01-06T03:25:56;7.82;73.38
64937;SHT30;51452;47.698;19.050;2024-01-06T03:28:21;7.74;73.51
64937;SHT30;51452;47.698;19.050;2024-01-06T03:30:47;7.85;73.28
64937;SHT30;51452;47.698;19.050;2024-01-06T03:33:15;7.88;73.34
64937;SHT30;51452;47.698;19.050;2024-01-06T03:35:43;7.92;73.55
64937;SHT30;51452;47.698;19.050;2024-01-06T03:38:09;7.93;73.26
64937;SHT30;51452;47.698;19.050;2024-01-06T03:40:37;8.01;73.03
64937;SHT30;51452;47.698;19.050;2024-01-06T03:43:02;8.01;73.01
64937;SHT30;51452;47.698;19.050;2024-01-06T03:45:28;8.02;72.78
64937;SHT30;51452;47.698;19.050;2024-01-06T03:47:54;8.10;72.83
64937;SHT30;51452;47.698;19.050;2024-01-06T03:50:19;8.07;72.92
64937;SHT30;51452;47.698;19.050;2024-01-06T03:52:44;8.06;72.96
64937;SHT30;51452;47.698;19.050;2024-01-06T03:55:10;8.09;72.96
64937;SHT30;51452;47.698;19.050;2024-01-06T03:57:35;7.98;73.07
64937;SHT30;51452;47.698;19.050;2024-01-06T04:00:05;7.93;73.63
64937;SHT30;51452;47.698;19.050;2024-01-06T04:02:30;7.91;73.76
64937;SHT30;51452;47.698;19.050;2024-01-06T04:04:56;7.86;73.92
64937;SHT30;51452;47.698;19.050;2024-01-06T04:07:21;7.92;73.79
64937;SHT30;51452;47.698;19.050;2024-01-06T04:09:47;7.91;73.74
64937;SHT30;51452;47.698;19.050;2024-01-06T04:12:12;7.96;73.83
64937;SHT30;51452;47.698;19.050;2024-01-06T04:14:37;7.92;74.00
64937;SHT30;51452;47.698;19.050;2024-01-06T04:17:06;7.93;74.09
64937;SHT30;51452;47.698;19.050;2024-01-06T04:19:32;8.01;73.78
64937;SHT30;51452;47.698;19.050;2024-01-06T04:22:06;8.01;73.63
64937;SHT30;51452;47.698;19.050;2024-01-06T04:24:31;8.01;73.77
64937;SHT30;51452;47.698;19.050;2024-01-06T04:26:59;8.05;73.76
64937;SHT30;51452;47.698;19.050;2024-01-06T04:29:25;8.03;74.19
64937;SHT30;51452;47.698;19.050;2024-01-06T04:31:51;8.01;74.38
64937;SHT30;51452;47.698;19.050;2024-01-06T04:34:16;8.05;74.52
64937;SHT30;51452;47.698;19.050;2024-01-06T04:36:42;8.05;74.37
64937;SHT30;51452;47.698;19.050;2024-01-06T04:39:07;8.05;74.72
64937;SHT30;51452;47.698;19.050;2024-01-06T04:41:33;7.98;75.42
64937;SHT30;51452;47.698;19.050;2024-01-06T04:44:01;7.98;75.04
64937;SHT30;51452;47.698;19.050;2024-01-06T04:46:27;7.98;75.30
64937;SHT30;51452;47.698;19.050;2024-01-06T04:48:52;7.95;75.29
64937;SHT30;51452;47.698;19.050;2024-01-06T04:51:18;7.96;75.27
64937;SHT30;51452;47.698;19.050;2024-01-06T04:53:43;7.98;75.18
64937;SHT30;51452;47.698;19.050;2024-01-06T04:56:09;7.93;75.37
64937;SHT30;51452;47.698;19.050;2024-01-06T04:58:34;7.98;75.22
64937;SHT30;51452;47.698;19.050;2024-01-06T05:01:00;7.95;75.15
64937;SHT30;51452;47.698;19.050;2024-01-06T05:03:25;7.89;75.30
64937;SHT30;51452;47.698;19.050;2024-01-06T05:05:50;7.92;75.28
64937;SHT30;51452;47.698;19.050;2024-01-06T05:08:16;7.99;75.21
64937;SHT30;51452;47.698;19.050;2024-01-06T05:10:44;7.86;75.02
64937;SHT30;51452;47.698;19.050;2024-01-06T05:13:09;7.78;75.35
64937;SHT30;51452;47.698;19.050;2024-01-06T05:15:35;7.77;75.51
64937;SHT30;51452;47.698;19.050;2024-01-06T05:18:00;7.77;75.38
64937;SHT30;51452;47.698;19.050;2024-01-06T05:20:25;7.67;75.75
64937;SHT30;51452;47.698;19.050;2024-01-06T05:22:51;7.58;75.76
64937;SHT30;51452;47.698;19.050;2024-01-06T05:25:16;7.60;76.11
64937;SHT30;51452;47.698;19.050;2024-01-06T05:27:42;7.58;76.24
64937;SHT30;51452;47.698;19.050;2024-01-06T05:30:07;7.54;76.59
64937;SHT30;51452;47.698;19.050;2024-01-06T05:32:33;7.70;76.43
64937;SHT30;51452;47.698;19.050;2024-01-06T05:34:58;7.75;76.42
64937;SHT30;51452;47.698;19.050;2024-01-06T05:37:24;7.78;76.44
64937;SHT30;51452;47.698;19.050;2024-01-06T05:39:49;7.81;76.76
64937;SHT30;51452;47.698;19.050;2024-01-06T05:42:14;7.81;76.60
64937;SHT30;51452;47.698;19.050;2024-01-06T05:44:40;7.81;76.63
64937;SHT30;51452;47.698;19.050;2024-01-06T05:47:09;7.86;76.57
64937;SHT30;51452;47.698;19.050;2024-01-06T05:49:34;7.83;76.71
64937;SHT30;51452;47.698;19.050;2024-01-06T05:52:00;7.86;76.57
64937;SHT30;51452;47.698;19.050;2024-01-06T05:54:28;7.83;76.79
64937;SHT30;51452;47.698;19.050;2024-01-06T05:56:55;7.75;76.89
64937;SHT30;51452;47.698;19.050;2024-01-06T05:59:21;7.64;77.07
64937;SHT30;51452;47.698;19.050;2024-01-06T06:01:46;7.52;77.78
64937;SHT30;51452;47.698;19.050;2024-01-06T06:04:11;7.50;77.65
64937;SHT30;51452;47.698;19.050;2024-01-06T06:06:37;7.64;77.71
64937;SHT30;51452;47.698;19.050;2024-01-06T06:09:02;7.61;77.38
64937;SHT30;51452;47.698;19.050;2024-01-06T06:11:32;7.71;77.32
64937;SHT30;51452;47.698;19.050;2024-01-06T06:13:57;7.75;76.94
64937;SHT30;51452;47.698;19.050;2024-01-06T06:16:22;7.79;76.59
64937;SHT30;51452;47.698;19.050;2024-01-06T06:18:48;7.78;77.01
64937;SHT30;51452;47.698;19.050;2024-01-06T06:21:13;7.83;76.64
64937;SHT30;51452;47.698;19.050;2024-01-06T06:23:38;7.92;76.82
64937;SHT30;51452;47.698;19.050;2024-01-06T06:26:06;7.98;77.09
64937;SHT30;51452;47.698;19.050;2024-01-06T06:28:32;8.01;76.79
64937;SHT30;51452;47.698;19.050;2024-01-06T06:30:57;8.02;77.29
64937;SHT30;51452;47.698;19.050;2024-01-06T06:33:23;8.01;77.55
64937;SHT30;51452;47.698;19.050;2024-01-06T06:35:48;8.02;77.33
64937;SHT30;51452;47.698;19.050;2024-01-06T06:38:16;8.05;77.03
64937;SHT30;51452;47.698;19.050;2024-01-06T06:40:42;8.02;77.14
64937;SHT30;51452;47.698;19.050;2024-01-06T06:43:07;7.99;77.60
64937;SHT30;51452;47.698;19.050;2024-01-06T06:45:33;8.02;77.61
64937;SHT30;51452;47.698;19.050;2024-01-06T06:47:59;8.06;77.61
64937;SHT30;51452;47.698;19.050;2024-01-06T06:50:24;8.06;77.39
64937;SHT30;51452;47.698;19.050;2024-01-06T06:52:49;8.06;77.63
64937;SHT30;51452;47.698;19.050;2024-01-06T06:55:15;8.02;77.22
64937;SHT30;51452;47.698;19.050;2024-01-06T06:57:41;8.05;77.50
64937;SHT30;51452;47.698;19.050;2024-01-06T07:00:06;8.07;77.81
64937;SHT30;51452;47.698;19.050;2024-01-06T07:02:35;8.02;77.81
64937;SHT30;51452;47.698;19.050;2024-01-06T07:05:00;8.09;77.68
64937;SHT30;51452;47.698;19.050;2024-01-06T07:07:26;7.98;77.77
64937;SHT30;51452;47.698;19.050;2024-01-06T07:09:51;8.06;77.06
64937;SHT30;51452;47.698;19.050;2024-01-06T07:12:16;7.86;77.67
64937;SHT30;51452;47.698;19.050;2024-01-06T07:14:42;7.68;78.62
64937;SHT30;51452;47.698;19.050;2024-01-06T07:17:07;7.74;78.74
64937;SHT30;51452;47.698;19.050;2024-01-06T07:19:34;7.65;78.48
64937;SHT30;51452;47.698;19.050;2024-01-06T07:21:59;7.65;78.52
64937;SHT30;51452;47.698;19.050;2024-01-06T07:24:25;7.68;78.70
64937;SHT30;51452;47.698;19.050;2024-01-06T07:26:51;7.74;79.24
64937;SHT30;51452;47.698;19.050;2024-01-06T07:29:16;7.71;79.12
64937;SHT30;51452;47.698;19.050;2024-01-06T07:31:42;7.61;78.77
64937;SHT30;51452;47.698;19.050;2024-01-06T07:34:07;7.55;78.35
64937;SHT30;51452;47.698;19.050;2024-01-06T07:36:32;7.54;78.46
64937;SHT30;51452;47.698;19.050;2024-01-06T07:38:58;7.58;78.85
64937;SHT30;51452;47.698;19.050;2024-01-06T07:41:24;7.72;78.30
64937;SHT30;51452;47.698;19.050;2024-01-06T07:43:49;7.79;78.21
64937;SHT30;51452;47.698;19.050;2024-01-06T07:46:15;7.61;79.05
64937;SHT30;51452;47.698;19.050;2024-01-06T07:48:40;7.68;78.76
64937;SHT30;51452;47.698;19.050;2024-01-06T07:51:05;7.68;79.10
64937;SHT30;51452;47.698;19.050;2024-01-06T07:53:31;7.68;79.44
64937;SHT30;51452;47.698;19.050;2024-01-06T07:55:56;7.60;78.54
64937;SHT30;51452;47.698;19.050;2024-01-06T07:58:22;7.54;79.62
64937;SHT30;51452;47.698;19.050;2024-01-06T08:00:47;7.61;79.43
64937;SHT30;51452;47.698;19.050;2024-01-06T08:03:13;7.51;79.53
64937;SHT30;51452;47.698;19.050;2024-01-06T08:05:39;7.44;79.10
64937;SHT30;51452;47.698;19.050;2024-01-06T08:08:05;7.34;79.18
64937;SHT30;51452;47.698;19.050;2024-01-06T08:10:30;7.54;79.22
64937;SHT30;51452;47.698;19.050;2024-01-06T08:12:56;7.64;79.59
64937;SHT30;51452;47.698;19.050;2024-01-06T08:15:22;7.57;80.02
64937;SHT30;51452;47.698;19.050;2024-01-06T08:17:47;7.65;79.95
64937;SHT30;51452;47.698;19.050;2024-01-06T08:20:12;7.67;79.72
64937;SHT30;51452;47.698;19.050;2024-01-06T08:22:38;7.60;79.87
64937;SHT30;51452;47.698;19.050;2024-01-06T08:25:05;7.54;79.13
64937;SHT30;51452;47.698;19.050;2024-01-06T08:27:33;7.54;79.71
64937;SHT30;51452;47.698;19.050;2024-01-06T08:29:59;7.50;80.45
64937;SHT30;51452;47.698;19.050;2024-01-06T08:32:24;7.57;80.61
64937;SHT30;51452;47.698;19.050;2024-01-06T08:34:50;7.48;81.13
64937;SHT30;51452;47.698;19.050;2024-01-06T08:37:15;7.54;80.52
64937;SHT30;51452;47.698;19.050;2024-01-06T08:39:41;7.57;80.76
64937;SHT30;51452;47.698;19.050;2024-01-06T08:42:06;7.64;80.97
64937;SHT30;51452;47.698;19.050;2024-01-06T08:44:32;7.64;81.13
64937;SHT30;51452;47.698;19.050;2024-01-06T08:46:57;7.70;81.24
64937;SHT30;51452;47.698;19.050;2024-01-06T08:49:22;7.81;80.87
64937;SHT30;51452;47.698;19.050;2024-01-06T08:51:48;7.81;79.80
64937;SHT30;51452;47.698;19.050;2024-01-06T08:54:13;7.65;80.25
64937;SHT30;51452;47.698;19.050;2024-01-06T08:56:42;7.79;80.16
64937;SHT30;51452;47.698;19.050;2024-01-06T08:59:07;7.72;79.59
64937;SHT30;51452;47.698;19.050;2024-01-06T09:01:33;7.75;79.52
64937;SHT30;51452;47.698;19.050;2024-01-06T09:04:01;7.77;80.10
64937;SHT30;51452;47.698;19.050;2024-01-06T09:06:27;7.75;80.62
64937;SHT30;51452;47.698;19.050;2024-01-06T09:08:52;7.72;79.69
64937;SHT30;51452;47.698;19.050;2024-01-06T09:11:17;7.70;80.04
64937;SHT30;51452;47.698;19.050;2024-01-06T09:13:43;7.71;80.32
64937;SHT30;51452;47.698;19.050;2024-01-06T09:16:09;7.70;80.69
64937;SHT30;51452;47.698;19.050;2024-01-06T09:18:35;7.83;80.12
64937;SHT30;51452;47.698;19.050;2024-01-06T09:21:01;8.02;79.53
64937;SHT30;51452;47.698;19.050;2024-01-06T09:23:26;8.02;79.36
64937;SHT30;51452;47.698;19.050;2024-01-06T09:25:52;8.12;79.53
64937;SHT30;51452;47.698;19.050;2024-01-06T09:28:18;8.02;80.05
64937;SHT30;51452;47.698;19.050;2024-01-06T09:30:43;7.96;79.41
64937;SHT30;51452;47.698;19.050;2024-01-06T09:33:09;8.05;79.42
64937;SHT30;51452;47.698;19.050;2024-01-06T09:35:35;8.06;79.32
64937;SHT30;51452;47.698;19.050;2024-01-06T09:38:00;8.10;79.42
64937;SHT30;51452;47.698;19.050;2024-01-06T09:40:26;8.14;79.07
64937;SHT30;51452;47.698;19.050;2024-01-06T09:42:52;7.99;78.41
64937;SHT30;51452;47.698;19.050;2024-01-06T09:45:21;7.96;78.43
64937;SHT30;51452;47.698;19.050;2024-01-06T09:47:51;7.78;78.80
64937;SHT30;51452;47.698;19.050;2024-01-06T09:50:20;7.89;78.68
64937;SHT30;51452;47.698;19.050;2024-01-06T09:52:47;7.88;78.64
64937;SHT30;51452;47.698;19.050;2024-01-06T09:55:25;7.72;78.96
64937;SHT30;51452;47.698;19.050;2024-01-06T09:57:54;7.79;78.92
64937;SHT30;51452;47.698;19.050;2024-01-06T10:00:20;7.75;79.14
64937;SHT30;51452;47.698;19.050;2024-01-06T10:02:47;7.75;79.75
64937;SHT30;51452;47.698;19.050;2024-01-06T10:05:15;7.67;79.98
64937;SHT30;51452;47.698;19.050;2024-01-06T10:07:47;7.82;79.63
64937;SHT30;51452;47.698;19.050;2024-01-06T10:10:14;7.81;79.85
64937;SHT30;51452;47.698;19.050;2024-01-06T10:12:41;7.83;80.00
64937;SHT30;51452;47.698;19.050;2024-01-06T10:15:11;7.89;79.96
64937;SHT30;51452;47.698;19.050;2024-01-06T10:17:37;8.02;80.07
64937;SHT30;51452;47.698;19.050;2024-01-06T10:20:09;8.09;79.81
64937;SHT30;51452;47.698;19.050;2024-01-06T10:22:41;8.13;80.07
64937;SHT30;51452;47.698;19.050;2024-01-06T10:25:08;8.07;80.08
64937;SHT30;51452;47.698;19.050;2024-01-06T10:27:38;8.19;79.54
64937;SHT30;51452;47.698;19.050;2024-01-06T10:30:04;8.21;79.70
64937;SHT30;51452;47.698;19.050;2024-01-06T10:32:33;8.10;79.78
64937;SHT30;51452;47.698;19.050;2024-01-06T10:35:00;8.17;79.60
64937;SHT30;51452;47.698;19.050;2024-01-06T10:37:29;8.13;79.33
64937;SHT30;51452;47.698;19.050;2024-01-06T10:42:37;7.99;80.06
64937;SHT30;51452;47.698;19.050;2024-01-06T10:45:06;7.99;80.11
64937;SHT30;51452;47.698;19.050;2024-01-06T10:47:37;7.89;80.09
64937;SHT30;51452;47.698;19.050;2024-01-06T10:50:02;7.93;80.23
64937;SHT30;51452;47.698;19.050;2024-01-06T10:52:29;7.99;80.30
64937;SHT30;51452;47.698;19.050;2024-01-06T10:54:55;7.99;80.31
64937;SHT30;51452;47.698;19.050;2024-01-06T10:57:21;8.03;80.67
64937;SHT30;51452;47.698;19.050;2024-01-06T10:59:49;8.03;80.78
64937;SHT30;51452;47.698;19.050;2024-01-06T11:02:16;8.06;80.78
64937;SHT30;51452;47.698;19.050;2024-01-06T11:04:44;8.14;80.83
64937;SHT30;51452;47.698;19.050;2024-01-06T11:07:11;8.28;80.25
64937;SHT30;51452;47.698;19.050;2024-01-06T11:09:39;8.33;80.12
64937;SHT30;51452;47.698;19.050;2024-01-06T11:12:06;8.39;80.74
64937;SHT30;51452;47.698;19.050;2024-01-06T11:14:37;8.47;80.38
64937;SHT30;51452;47.698;19.050;2024-01-06T11:17:03;8.53;79.89
64937;SHT30;51452;47.698;19.050;2024-01-06T11:24:49;8.70;79.88
64937;SHT30;51452;47.698;19.050;2024-01-06T11:27:28;8.78;80.31
64937;SHT30;51452;47.698;19.050;2024-01-06T11:29:54;8.61;79.64
64937;SHT30;51452;47.698;19.050;2024-01-06T11:32:31;8.60;80.11
64937;SHT30;51452;47.698;19.050;2024-01-06T11:35:25;8.53;80.25
64937;SHT30;51452;47.698;19.050;2024-01-06T11:37:53;8.30;81.15
64937;SHT30;51452;47.698;19.050;2024-01-06T11:42:46;8.05;82.02
64937;SHT30;51452;47.698;19.050;2024-01-06T11:45:12;8.10;82.33
64937;SHT30;51452;47.698;19.050;2024-01-06T11:47:39;8.14;82.46
64937;SHT30;51452;47.698;19.050;2024-01-06T11:50:05;8.13;81.86
64937;SHT30;51452;47.698;19.050;2024-01-06T11:52:34;8.09;82.15
64937;SHT30;51452;47.698;19.050;2024-01-06T11:55:00;8.03;82.14
64937;SHT30;51452;47.698;19.050;2024-01-06T11:57:27;8.06;82.39
64937;SHT30;51452;47.698;19.050;2024-01-06T11:59:53;8.06;82.22
64937;SHT30;51452;47.698;19.050;2024-01-06T12:02:19;7.93;82.55
64937;SHT30;51452;47.698;19.050;2024-01-06T12:04:49;7.92;83.03
64937;SHT30;51452;47.698;19.050;2024-01-06T12:07:16;7.91;83.27
64937;SHT30;51452;47.698;19.050;2024-01-06T12:09:44;7.93;83.29
64937;SHT30;51452;47.698;19.050;2024-01-06T12:12:10;7.93;83.49
64937;SHT30;51452;47.698;19.050;2024-01-06T12:14:36;7.92;83.30
64937;SHT30;51452;47.698;19.050;2024-01-06T12:17:01;7.93;83.36
64937;SHT30;51452;47.698;19.050;2024-01-06T12:19:31;7.91;83.40
64937;SHT30;51452;47.698;19.050;2024-01-06T12:21:57;7.83;83.46
64937;SHT30;51452;47.698;19.050;2024-01-06T12:24:23;7.88;83.52
64937;SHT30;51452;47.698;19.050;2024-01-06T12:26:49;7.81;83.59
64937;SHT30;51452;47.698;19.050;2024-01-06T12:29:16;7.85;83.62
64937;SHT30;51452;47.698;19.050;2024-01-06T12:31:43;7.96;83.42
64937;SHT30;51452;47.698;19.050;2024-01-06T12:34:10;7.99;83.17
64937;SHT30;51452;47.698;19.050;2024-01-06T12:36:37;7.88;83.15
64937;SHT30;51452;47.698;19.050;2024-01-06T12:39:03;7.95;83.41
64937;SHT30;51452;47.698;19.050;2024-01-06T12:41:29;7.99;83.36
64937;SHT30;51452;47.698;19.050;2024-01-06T12:43:54;7.98;82.98
64937;SHT30;51452;47.698;19.050;2024-01-06T12:46:20;8.02;83.00
64937;SHT30;51452;47.698;19.050;2024-01-06T12:48:45;8.06;83.05
64937;SHT30;51452;47.698;19.050;2024-01-06T12:51:11;8.05;83.05
64937;SHT30;51452;47.698;19.050;2024-01-06T12:53:36;7.98;83.13
64937;SHT30;51452;47.698;19.050;2024-01-06T12:56:05;7.98;83.08
64937;SHT30;51452;47.698;19.050;2024-01-06T12:58:32;8.01;83.12
64937;SHT30;51452;47.698;19.050;2024-01-06T13:00:59;8.06;82.93
64937;SHT30;51452;47.698;19.050;2024-01-06T13:03:24;8.07;83.00
64937;SHT30;51452;47.698;19.050;2024-01-06T13:05:50;7.99;83.07
64937;SHT30;51452;47.698;19.050;2024-01-06T13:08:15;7.89;83.26
64937;SHT30;51452;47.698;19.050;2024-01-06T13:10:41;7.95;83.44
64937;SHT30;51452;47.698;19.050;2024-01-06T13:13:06;7.85;83.56
64937;SHT30;51452;47.698;19.050;2024-01-06T13:15:31;7.86;83.66
64937;SHT30;51452;47.698;19.050;2024-01-06T13:17:57;7.85;83.88
64937;SHT30;51452;47.698;19.050;2024-01-06T13:20:23;7.92;83.60
64937;SHT30;51452;47.698;19.050;2024-01-06T13:22:48;7.92;83.51
64937;SHT30;51452;47.698;19.050;2024-01-06T13:25:14;7.88;83.56
64937;SHT30;51452;47.698;19.050;2024-01-06T13:27:40;7.82;83.89
64937;SHT30;51452;47.698;19.050;2024-01-06T13:30:06;7.81;83.79
64937;SHT30;51452;47.698;19.050;2024-01-06T13:32:31;7.86;84.15
64937;SHT30;51452;47.698;19.050;2024-01-06T13:34:57;7.75;84.25
64937;SHT30;51452;47.698;19.050;2024-01-06T13:37:30;7.86;84.13
64937;SHT30;51452;47.698;19.050;2024-01-06T13:39:56;7.78;84.06
64937;SHT30;51452;47.698;19.050;2024-01-06T13:42:21;7.91;84.02
64937;SHT30;51452;47.698;19.050;2024-01-06T13:44:47;7.88;84.12
64937;SHT30;51452;47.698;19.050;2024-01-06T13:47:14;7.86;84.03
64937;SHT30;51452;47.698;19.050;2024-01-06T13:49:40;7.89;83.78
64937;SHT30;51452;47.698;19.050;2024-01-06T13:52:06;7.91;83.96
64937;SHT30;51452;47.698;19.050;2024-01-06T13:54:36;7.99;83.97
64937;SHT30;51452;47.698;19.050;2024-01-06T13:57:05;7.98;83.89
64937;SHT30;51452;47.698;19.050;2024-01-06T13:59:30;8.02;83.88
64937;SHT30;51452;47.698;19.050;2024-01-06T14:01:59;7.99;83.81
64937;SHT30;51452;47.698;19.050;2024-01-06T14:04:27;7.98;83.65
64937;SHT30;51452;47.698;19.050;2024-01-06T14:06:52;8.02;83.75
64937;SHT30;51452;47.698;19.050;2024-01-06T14:09:21;8.02;83.80
64937;SHT30;51452;47.698;19.050;2024-01-06T14:11:46;8.05;83.93
64937;SHT30;51452;47.698;19.050;2024-01-06T14:14:12;8.01;83.71
64937;SHT30;51452;47.698;19.050;2024-01-06T14:16:37;8.09;83.75
64937;SHT30;51452;47.698;19.050;2024-01-06T14:19:03;8.01;84.06
64937;SHT30;51452;47.698;19.050;2024-01-06T14:21:28;8.02;83.87
64937;SHT30;51452;47.698;19.050;2024-01-06T14:23:54;7.96;83.97
64937;SHT30;51452;47.698;19.050;2024-01-06T14:26:19;7.93;84.25
64937;SHT30;51452;47.698;19.050;2024-01-06T14:28:46;7.93;84.21
64937;SHT30;51452;47.698;19.050;2024-01-06T14:31:11;8.01;84.14
64937;SHT30;51452;47.698;19.050;2024-01-06T14:33:37;8.05;84.07
64937;SHT30;51452;47.698;19.050;2024-01-06T14:36:03;8.10;83.77
64937;SHT30;51452;47.698;19.050;2024-01-06T14:38:28;8.03;84.06
64937;SHT30;51452;47.698;19.050;2024-01-06T14:40:54;8.03;84.23
64937;SHT30;51452;47.698;19.050;2024-01-06T14:43:19;7.95;84.37
64937;SHT30;51452;47.698;19.050;2024-01-06T14:45:46;7.92;84.35
64937;SHT30;51452;47.698;19.050;2024-01-06T14:48:11;7.92;84.46
64937;SHT30;51452;47.698;19.050;2024-01-06T14:50:37;7.95;84.42
64937;SHT30;51452;47.698;19.050;2024-01-06T14:53:03;8.05;84.22
64937;SHT30;51452;47.698;19.050;2024-01-06T14:55:28;8.05;84.12
64937;SHT30;51452;47.698;19.050;2024-01-06T14:57:53;8.09;84.14
64937;SHT30;51452;47.698;19.050;2024-01-06T15:00:19;8.12;83.87
64937;SHT30;51452;47.698;19.050;2024-01-06T15:02:44;8.16;83.81
64937;SHT30;51452;47.698;19.050;2024-01-06T15:05:13;8.09;83.61
64937;SHT30;51452;47.698;19.050;2024-01-06T15:07:38;8.19;83.60
64937;SHT30;51452;47.698;19.050;2024-01-06T15:10:04;8.23;83.47
64937;SHT30;51452;47.698;19.050;2024-01-06T15:12:30;8.25;83.50
64937;SHT30;51452;47.698;19.050;2024-01-06T15:14:56;8.30;83.38
64937;SHT30;51452;47.698;19.050;2024-01-06T15:17:23;8.23;83.51
64937;SHT30;51452;47.698;19.050;2024-01-06T15:19:48;8.34;83.54
64937;SHT30;51452;47.698;19.050;2024-01-06T15:22:15;8.30;83.74
64937;SHT30;51452;47.698;19.050;2024-01-06T15:24:41;8.36;83.57
64937;SHT30;51452;47.698;19.050;2024-01-06T15:27:12;8.39;83.49
64937;SHT30;51452;47.698;19.050;2024-01-06T15:29:38;8.50;83.07
64937;SHT30;51452;47.698;19.050;2024-01-06T15:32:03;8.61;82.74
64937;SHT30;51452;47.698;19.050;2024-01-06T15:34:29;8.63;82.55